createdAt,value
2018-01-01T00:00:04.050Z,0
2018-01-01T00:00:44.605Z,0
2018-01-01T00:01:25.136Z,0
2018-01-01T00:02:05.713Z,0
2018-01-01T00:02:46.438Z,0
2018-01-01T00:03:26.845Z,0
2018-01-01T00:04:07.287Z,0
2018-01-01T00:04:47.832Z,0
2018-01-01T00:05:28.488Z,0
2018-01-01T00:06:09.396Z,0
2018-01-01T00:06:49.740Z,0
2018-01-01T00:07:30.348Z,0
2018-01-01T00:08:11.603Z,0
2018-01-01T00:08:52.436Z,0
2018-01-01T00:09:32.789Z,0
2018-01-01T00:10:13.561Z,0
2018-01-01T00:10:54.018Z,0
2018-01-01T00:11:34.754Z,0
2018-01-01T00:12:15.334Z,0
2018-01-01T00:12:55.911Z,0
2018-01-01T00:13:36.409Z,0
2018-01-01T00:14:17.006Z,0
2018-01-01T00:14:57.863Z,0
2018-01-01T00:17:31.599Z,0
2018-01-01T00:18:12.146Z,0
2018-01-01T00:18:52.628Z,0
2018-01-01T00:19:33.147Z,0
2018-01-01T00:20:13.719Z,0
2018-01-01T00:20:54.305Z,0
2018-01-01T00:21:34.854Z,0
2018-01-01T00:22:15.484Z,0
2018-01-01T00:22:56.013Z,0
2018-01-01T00:23:36.552Z,0
2018-01-01T00:24:17.076Z,0
2018-01-01T00:24:57.672Z,0
2018-01-01T00:25:38.148Z,0
2018-01-01T00:26:18.672Z,0
2018-01-01T00:26:59.253Z,0
2018-01-01T00:27:39.804Z,0
2018-01-01T00:28:20.319Z,0
2018-01-01T00:29:00.852Z,0
2018-01-01T00:29:41.362Z,0
2018-01-01T00:30:21.897Z,0
2018-01-01T00:31:02.472Z,0
2018-01-01T00:31:43.046Z,0
2018-01-01T00:32:23.617Z,0
2018-01-01T00:33:04.135Z,0
2018-01-01T00:33:44.662Z,0
2018-01-01T00:34:25.295Z,0
2018-01-01T00:35:05.893Z,0
2018-01-01T00:35:46.372Z,0
2018-01-01T00:36:26.929Z,0
2018-01-01T00:37:07.506Z,0
2018-01-01T00:37:48.031Z,0
2018-01-01T00:38:28.540Z,0
2018-01-01T00:39:09.074Z,0
2018-01-01T00:39:49.649Z,0
2018-01-01T00:40:30.133Z,0
2018-01-01T00:41:10.680Z,0
2018-01-01T00:41:51.250Z,0
2018-01-01T00:42:31.822Z,0
2018-01-01T00:43:12.333Z,0
2018-01-01T00:43:52.893Z,0
2018-01-01T00:44:33.443Z,0
2018-01-01T00:45:14.015Z,0
2018-01-01T00:45:54.543Z,0
2018-01-01T00:46:35.094Z,0
2018-01-01T00:47:15.594Z,0
2018-01-01T00:47:56.134Z,0
2018-01-01T00:48:36.751Z,0
2018-01-01T00:49:17.265Z,0
2018-01-01T00:49:57.748Z,0
2018-01-01T00:50:38.314Z,0
2018-01-01T00:51:18.844Z,0
2018-01-01T00:51:59.390Z,0
2018-01-01T00:52:39.926Z,0
2018-01-01T00:53:20.406Z,0
2018-01-01T00:54:00.942Z,0
2018-01-01T00:54:41.449Z,0
2018-01-01T00:55:21.971Z,0
2018-01-01T00:56:02.515Z,0
2018-01-01T00:56:43.067Z,0
2018-01-01T00:57:23.545Z,0
2018-01-01T00:58:04.130Z,0
2018-01-01T00:58:44.644Z,0
2018-01-01T00:59:25.157Z,0
2018-01-01T01:00:05.694Z,0
2018-01-01T01:00:46.249Z,0
2018-01-01T01:01:26.861Z,0
2018-01-01T01:02:07.351Z,0
2018-01-01T01:02:47.911Z,0
2018-01-01T01:03:28.559Z,0
2018-01-01T01:04:09.250Z,0
2018-01-01T01:04:49.749Z,0
2018-01-01T01:05:30.319Z,0
2018-01-01T01:06:10.896Z,0
2018-01-01T01:06:51.439Z,0
2018-01-01T01:07:31.957Z,0
2018-01-01T01:08:12.523Z,0
2018-01-01T01:08:53.094Z,0
2018-01-01T01:09:33.669Z,0
2018-01-01T01:10:14.262Z,0
2018-01-01T01:10:54.809Z,0
2018-01-01T01:11:35.356Z,0
2018-01-01T01:12:15.841Z,0
2018-01-01T01:12:56.428Z,0
2018-01-01T01:13:37.015Z,0
2018-01-01T01:14:17.565Z,0
2018-01-01T01:14:58.046Z,0
2018-01-01T01:15:38.596Z,0
2018-01-01T01:16:19.186Z,0
2018-01-01T01:16:59.707Z,0
2018-01-01T01:17:40.270Z,0
2018-01-01T01:18:20.859Z,0
2018-01-01T01:19:01.357Z,0
2018-01-01T01:19:41.938Z,0
2018-01-01T01:20:22.449Z,0
2018-01-01T01:21:03.011Z,0
2018-01-01T01:21:43.664Z,0
2018-01-01T01:22:24.239Z,0
2018-01-01T01:23:04.783Z,0
2018-01-01T01:23:45.378Z,0
2018-01-01T01:24:25.958Z,0
2018-01-01T01:25:06.524Z,0
2018-01-01T01:25:47.131Z,0
2018-01-01T01:26:27.607Z,0
2018-01-01T01:27:08.185Z,0
2018-01-01T01:27:48.783Z,0
2018-01-01T01:28:29.274Z,0
2018-01-01T01:29:09.853Z,0
2018-01-01T01:29:50.391Z,0
2018-01-01T01:30:30.930Z,0
2018-01-01T01:31:11.496Z,0
2018-01-01T01:31:52.008Z,0
2018-01-01T01:32:32.551Z,0
2018-01-01T01:33:13.083Z,0
2018-01-01T01:33:53.628Z,0
2018-01-01T01:34:34.132Z,0
2018-01-01T01:35:14.697Z,0
2018-01-01T01:35:55.235Z,0
2018-01-01T01:36:35.791Z,0
2018-01-01T01:37:16.296Z,0
2018-01-01T01:37:56.827Z,0
2018-01-01T01:38:37.357Z,0
2018-01-01T01:39:17.885Z,0
2018-01-01T01:39:58.445Z,0
2018-01-01T01:40:38.962Z,0
2018-01-01T01:41:19.510Z,0
2018-01-01T01:42:00.044Z,0
2018-01-01T01:42:40.613Z,0
2018-01-01T01:43:21.094Z,0
2018-01-01T01:44:01.747Z,0
2018-01-01T01:44:42.235Z,0
2018-01-01T01:45:22.819Z,0
2018-01-01T01:46:03.344Z,0
2018-01-01T01:46:43.832Z,0
2018-01-01T01:47:24.414Z,0
2018-01-01T01:48:04.913Z,0
2018-01-01T01:48:45.477Z,0
2018-01-01T01:49:26.041Z,0
2018-01-01T01:50:06.576Z,0
2018-01-01T01:50:47.121Z,0
2018-01-01T01:51:27.628Z,0
2018-01-01T01:52:08.152Z,0
2018-01-01T01:52:48.678Z,0
2018-01-01T01:53:29.219Z,0
2018-01-01T01:54:09.801Z,0
2018-01-01T01:54:50.308Z,0
2018-01-01T01:55:30.892Z,0
2018-01-01T01:56:11.418Z,0
2018-01-01T01:56:51.976Z,0
2018-01-01T01:57:32.523Z,0
2018-01-01T01:58:13.078Z,0
2018-01-01T01:58:53.564Z,0
2018-01-01T01:59:34.136Z,0
2018-01-01T02:00:14.715Z,0
2018-01-01T02:00:55.244Z,0
2018-01-01T02:01:35.789Z,0
2018-01-01T02:02:16.373Z,0
2018-01-01T02:02:57.003Z,0
2018-01-01T02:03:37.485Z,0
2018-01-01T02:04:18.038Z,0
2018-01-01T02:04:58.661Z,0
2018-01-01T02:05:39.130Z,0
2018-01-01T02:06:19.675Z,0
2018-01-01T02:07:00.214Z,0
2018-01-01T02:07:40.714Z,0
2018-01-01T02:08:21.238Z,0
2018-01-01T02:09:01.761Z,0
2018-01-01T02:09:42.299Z,0
2018-01-01T02:10:22.868Z,0
2018-01-01T02:11:03.391Z,0
2018-01-01T02:11:43.965Z,0
2018-01-01T02:12:24.518Z,0
2018-01-01T02:13:05.062Z,0
2018-01-01T02:13:45.637Z,0
2018-01-01T02:14:26.150Z,0
2018-01-01T02:15:06.676Z,0
2018-01-01T02:15:47.258Z,0
2018-01-01T02:16:27.821Z,0
2018-01-01T02:17:08.369Z,0
2018-01-01T02:17:48.864Z,0
2018-01-01T02:18:29.441Z,0
2018-01-01T02:19:09.946Z,0
2018-01-01T02:19:50.509Z,0
2018-01-01T02:20:31.024Z,0
2018-01-01T02:21:11.603Z,0
2018-01-01T02:21:52.159Z,0
2018-01-01T02:22:32.683Z,0
2018-01-01T02:23:13.263Z,0
2018-01-01T02:23:53.814Z,0
2018-01-01T02:24:34.414Z,0
2018-01-01T02:25:15.019Z,0
2018-01-01T02:25:55.541Z,0
2018-01-01T02:26:36.173Z,0
2018-01-01T02:27:16.690Z,0
2018-01-01T02:27:57.237Z,0
2018-01-01T02:28:37.817Z,0
2018-01-01T02:29:18.381Z,0
2018-01-01T02:29:58.878Z,0
2018-01-01T02:30:39.503Z,0
2018-01-01T02:31:20.020Z,0
2018-01-01T02:32:00.555Z,0
2018-01-01T02:32:41.080Z,0
2018-01-01T02:33:21.646Z,0
2018-01-01T02:34:02.197Z,0
2018-01-01T02:34:42.726Z,0
2018-01-01T02:35:23.264Z,0
2018-01-01T02:36:03.815Z,0
2018-01-01T02:36:44.384Z,0
2018-01-01T02:37:24.838Z,0
2018-01-01T02:38:05.389Z,0
2018-01-01T02:38:45.905Z,0
2018-01-01T02:39:26.459Z,0
2018-01-01T02:40:06.989Z,0
2018-01-01T02:40:47.611Z,0
2018-01-01T02:41:28.143Z,0
2018-01-01T02:42:08.741Z,0
2018-01-01T02:42:49.201Z,0
2018-01-01T02:43:29.826Z,0
2018-01-01T02:44:10.439Z,0
2018-01-01T02:44:50.913Z,0
2018-01-01T02:45:31.488Z,0
2018-01-01T02:46:11.983Z,0
2018-01-01T02:46:52.534Z,0
2018-01-01T02:47:33.039Z,0
2018-01-01T02:48:13.563Z,0
2018-01-01T02:48:54.101Z,0
2018-01-01T02:49:34.609Z,0
2018-01-01T02:50:15.147Z,0
2018-01-01T02:50:55.679Z,0
2018-01-01T02:51:36.218Z,0
2018-01-01T02:52:16.706Z,0
2018-01-01T02:52:57.243Z,0
2018-01-01T02:53:37.793Z,0
2018-01-01T02:54:18.358Z,0
2018-01-01T02:54:58.888Z,0
2018-01-01T02:55:39.457Z,0
2018-01-01T02:56:19.988Z,0
2018-01-01T02:57:00.507Z,0
2018-01-01T02:57:41.010Z,0
2018-01-01T02:58:21.588Z,0
2018-01-01T02:59:02.163Z,0
2018-01-01T02:59:42.713Z,0
2018-01-01T03:00:23.237Z,0
2018-01-01T03:01:03.705Z,0
2018-01-01T03:01:44.260Z,0
2018-01-01T03:02:24.759Z,0
2018-01-01T03:03:05.389Z,0
2018-01-01T03:03:45.936Z,0
2018-01-01T03:04:26.450Z,0
2018-01-01T03:05:06.958Z,0
2018-01-01T03:05:47.481Z,0
2018-01-01T03:06:28.095Z,0
2018-01-01T03:07:08.668Z,0
2018-01-01T03:07:49.176Z,0
2018-01-01T03:08:29.765Z,0
2018-01-01T03:09:10.292Z,0
2018-01-01T03:09:50.841Z,0
2018-01-01T03:10:31.501Z,0
2018-01-01T03:11:12.084Z,0
2018-01-01T03:11:52.580Z,0
2018-01-01T03:12:33.213Z,0
2018-01-01T03:13:13.726Z,0
2018-01-01T03:13:54.329Z,0
2018-01-01T03:14:34.946Z,0
2018-01-01T03:15:15.967Z,0
2018-01-01T03:15:56.512Z,0
2018-01-01T03:16:37.195Z,0
2018-01-01T03:17:17.864Z,0
2018-01-01T03:17:58.410Z,0
2018-01-01T03:18:43.450Z,0
2018-01-01T03:20:41.411Z,0
2018-01-01T03:21:22.016Z,0
2018-01-01T03:22:02.520Z,0
2018-01-01T03:22:43.136Z,0
2018-01-01T03:23:23.733Z,0
2018-01-01T03:24:04.250Z,0
2018-01-01T03:24:44.728Z,0
2018-01-01T03:25:25.299Z,0
2018-01-01T03:26:05.858Z,0
2018-01-01T03:26:46.401Z,0
2018-01-01T03:27:27.004Z,0
2018-01-01T03:28:07.492Z,0
2018-01-01T03:28:47.994Z,0
2018-01-01T03:29:28.562Z,0
2018-01-01T03:30:09.090Z,0
2018-01-01T03:30:49.651Z,0
2018-01-01T03:31:30.215Z,0
2018-01-01T03:32:10.798Z,0
2018-01-01T03:32:51.372Z,0
2018-01-01T03:33:31.920Z,0
2018-01-01T03:34:12.412Z,0
2018-01-01T03:34:53.073Z,0
2018-01-01T03:35:33.630Z,0
2018-01-01T03:36:14.202Z,0
2018-01-01T03:36:54.708Z,0
2018-01-01T03:37:35.237Z,0
2018-01-01T03:38:15.784Z,0
2018-01-01T03:38:56.306Z,0
2018-01-01T03:39:36.853Z,0
2018-01-01T03:40:17.391Z,0
2018-01-01T03:40:57.915Z,0
2018-01-01T03:41:38.522Z,0
2018-01-01T03:42:19.032Z,0
2018-01-01T03:42:59.593Z,0
2018-01-01T03:43:40.150Z,0
2018-01-01T03:44:20.766Z,0
2018-01-01T03:45:01.298Z,0
2018-01-01T03:45:41.907Z,0
2018-01-01T03:46:22.481Z,0
2018-01-01T03:47:03.046Z,0
2018-01-01T03:47:43.530Z,0
2018-01-01T03:48:24.137Z,0
2018-01-01T03:49:04.761Z,0
2018-01-01T03:49:45.265Z,0
2018-01-01T03:50:25.806Z,0
2018-01-01T03:51:06.289Z,0
2018-01-01T03:51:46.860Z,0
2018-01-01T03:52:27.392Z,0
2018-01-01T03:53:07.938Z,0
2018-01-01T03:53:48.513Z,0
2018-01-01T03:54:29.090Z,0
2018-01-01T03:55:09.572Z,0
2018-01-01T03:55:50.186Z,0
2018-01-01T03:56:30.864Z,0
2018-01-01T03:57:11.545Z,0
2018-01-01T03:57:51.965Z,0
2018-01-01T03:58:32.521Z,0
2018-01-01T03:59:13.007Z,0
2018-01-01T03:59:53.548Z,0
2018-01-01T04:00:34.256Z,0
2018-01-01T04:01:14.706Z,0
2018-01-01T04:01:55.300Z,0
2018-01-01T04:02:35.813Z,0
2018-01-01T04:03:16.319Z,0
2018-01-01T04:03:56.902Z,0
2018-01-01T04:04:37.443Z,0
2018-01-01T04:05:17.979Z,0
2018-01-01T04:05:58.562Z,0
2018-01-01T04:06:39.168Z,0
2018-01-01T04:07:19.630Z,0
2018-01-01T04:08:00.150Z,0
2018-01-01T04:08:40.716Z,0
2018-01-01T04:09:21.346Z,0
2018-01-01T04:10:01.831Z,0
2018-01-01T04:10:42.350Z,0
2018-01-01T04:11:22.822Z,0
2018-01-01T04:12:03.404Z,0
2018-01-01T04:12:43.948Z,0
2018-01-01T04:13:24.446Z,0
2018-01-01T04:14:05.023Z,0
2018-01-01T04:14:45.548Z,0
2018-01-01T04:15:26.037Z,0
2018-01-01T04:16:06.649Z,0
2018-01-01T04:16:47.177Z,0
2018-01-01T04:17:27.782Z,0
2018-01-01T04:18:08.248Z,0
2018-01-01T04:18:48.793Z,0
2018-01-01T04:19:29.332Z,0
2018-01-01T04:20:09.896Z,0
2018-01-01T04:20:50.421Z,0
2018-01-01T04:21:30.888Z,0
2018-01-01T04:22:11.465Z,0
2018-01-01T04:22:51.988Z,0
2018-01-01T04:23:32.488Z,0
2018-01-01T04:24:13.010Z,0
2018-01-01T04:24:53.590Z,0
2018-01-01T04:25:34.136Z,0
2018-01-01T04:26:14.631Z,0
2018-01-01T04:26:55.174Z,0
2018-01-01T04:27:35.739Z,0
2018-01-01T04:28:16.374Z,0
2018-01-01T04:28:56.949Z,0
2018-01-01T04:29:37.444Z,0
2018-01-01T04:30:18.157Z,0
2018-01-01T04:30:58.649Z,0
2018-01-01T04:31:39.199Z,0
2018-01-01T04:32:19.689Z,0
2018-01-01T04:33:00.293Z,0
2018-01-01T04:33:40.836Z,0
2018-01-01T04:34:21.339Z,0
2018-01-01T04:35:01.854Z,0
2018-01-01T04:35:42.375Z,0
2018-01-01T04:36:23.204Z,0
2018-01-01T04:37:04.101Z,0
2018-01-01T04:37:44.583Z,0
2018-01-01T04:38:25.122Z,0
2018-01-01T04:39:05.708Z,0
2018-01-01T04:39:46.200Z,0
2018-01-01T04:40:26.729Z,0
2018-01-01T04:41:07.292Z,0
2018-01-01T04:41:47.869Z,0
2018-01-01T04:42:28.431Z,0
2018-01-01T04:43:08.927Z,0
2018-01-01T04:43:49.520Z,0
2018-01-01T04:44:30.062Z,0
2018-01-01T04:45:10.626Z,0
2018-01-01T04:45:51.233Z,0
2018-01-01T04:46:31.740Z,0
2018-01-01T04:47:12.255Z,0
2018-01-01T04:47:52.813Z,0
2018-01-01T04:48:33.416Z,0
2018-01-01T04:49:14.011Z,0
2018-01-01T04:49:54.514Z,0
2018-01-01T04:50:35.145Z,0
2018-01-01T04:51:15.619Z,0
2018-01-01T04:51:56.204Z,0
2018-01-01T04:52:36.767Z,0
2018-01-01T04:53:17.407Z,0
2018-01-01T04:53:57.895Z,0
2018-01-01T04:54:38.501Z,0
2018-01-01T04:55:19.087Z,0
2018-01-01T04:55:59.600Z,0
2018-01-01T04:56:40.091Z,0
2018-01-01T04:57:20.630Z,0
2018-01-01T04:58:01.197Z,0
2018-01-01T04:58:41.765Z,0
2018-01-01T04:59:22.335Z,0
2018-01-01T05:00:02.906Z,0
2018-01-01T05:00:43.391Z,0
2018-01-01T05:01:24.051Z,0
2018-01-01T05:02:04.573Z,0
2018-01-01T05:02:45.079Z,0
2018-01-01T05:03:25.590Z,0
2018-01-01T05:04:06.152Z,0
2018-01-01T05:04:46.704Z,0
2018-01-01T05:05:27.392Z,0
2018-01-01T05:06:07.831Z,0
2018-01-01T05:06:48.359Z,0
2018-01-01T05:07:28.865Z,0
2018-01-01T05:08:09.452Z,0
2018-01-01T05:08:50.007Z,0
2018-01-01T05:09:30.523Z,0
2018-01-01T05:10:11.047Z,0
2018-01-01T05:10:51.655Z,0
2018-01-01T05:11:32.136Z,0
2018-01-01T05:12:12.701Z,0
2018-01-01T05:12:53.205Z,0
2018-01-01T05:13:33.793Z,0
2018-01-01T05:14:14.375Z,0
2018-01-01T05:14:54.932Z,0
2018-01-01T05:15:35.416Z,0
2018-01-01T05:16:16.104Z,0
2018-01-01T05:16:56.633Z,0
2018-01-01T05:17:37.171Z,0
2018-01-01T05:18:17.745Z,0
2018-01-01T05:18:58.236Z,0
2018-01-01T05:19:38.737Z,0
2018-01-01T05:20:19.319Z,0
2018-01-01T05:20:59.845Z,0
2018-01-01T05:21:41.119Z,0
2018-01-01T05:22:21.634Z,0
2018-01-01T05:23:02.102Z,0
2018-01-01T05:23:42.753Z,0
2018-01-01T05:24:23.322Z,0
2018-01-01T05:25:03.783Z,0
2018-01-01T05:25:44.289Z,0
2018-01-01T05:26:24.832Z,0
2018-01-01T05:27:05.391Z,0
2018-01-01T05:27:45.948Z,0
2018-01-01T05:28:26.413Z,0
2018-01-01T05:29:07.881Z,0
2018-01-01T05:29:48.518Z,0
2018-01-01T05:30:28.987Z,0
2018-01-01T05:31:09.515Z,0
2018-01-01T05:31:50.041Z,0
2018-01-01T05:32:30.547Z,0
2018-01-01T05:33:11.185Z,0
2018-01-01T05:33:51.777Z,0
2018-01-01T05:34:32.308Z,0
2018-01-01T05:35:12.932Z,0
2018-01-01T05:35:53.300Z,0
2018-01-01T05:36:33.967Z,0
2018-01-01T05:37:14.622Z,0
2018-01-01T05:37:55.068Z,0
2018-01-01T05:38:35.670Z,0
2018-01-01T05:39:16.253Z,0
2018-01-01T05:39:56.769Z,0
2018-01-01T05:40:37.283Z,0
2018-01-01T05:41:17.814Z,0
2018-01-01T05:41:58.401Z,0
2018-01-01T05:42:38.933Z,0
2018-01-01T05:43:19.519Z,0
2018-01-01T05:44:00.008Z,0
2018-01-01T05:44:40.765Z,0
2018-01-01T05:45:21.121Z,0
2018-01-01T05:46:01.773Z,0
2018-01-01T05:46:42.287Z,0
2018-01-01T05:47:22.984Z,0
2018-01-01T05:48:03.500Z,0
2018-01-01T05:48:44.082Z,0
2018-01-01T05:49:24.584Z,0
2018-01-01T05:50:05.147Z,0
2018-01-01T05:50:45.770Z,0
2018-01-01T05:51:26.224Z,0
2018-01-01T05:52:06.841Z,0
2018-01-01T05:52:47.434Z,0
2018-01-01T05:53:27.931Z,0
2018-01-01T05:54:08.477Z,0
2018-01-01T05:54:49.026Z,0
2018-01-01T05:55:29.529Z,0
2018-01-01T05:56:10.159Z,0
2018-01-01T05:56:50.598Z,0
2018-01-01T05:57:31.236Z,0
2018-01-01T05:58:11.777Z,0
2018-01-01T05:58:52.517Z,0
2018-01-01T05:59:33.266Z,0
2018-01-01T06:00:13.725Z,0
2018-01-01T06:00:54.289Z,0
2018-01-01T06:01:34.964Z,0
2018-01-01T06:02:15.586Z,0
2018-01-01T06:02:56.146Z,0
2018-01-01T06:03:36.671Z,0
2018-01-01T06:04:17.231Z,0
2018-01-01T06:04:57.757Z,0
2018-01-01T06:05:38.339Z,0
2018-01-01T06:06:18.883Z,0
2018-01-01T06:06:59.437Z,0
2018-01-01T06:07:40.062Z,0
2018-01-01T06:08:20.615Z,0
2018-01-01T06:09:01.096Z,0
2018-01-01T06:09:41.690Z,0
2018-01-01T06:10:22.230Z,0
2018-01-01T06:11:02.802Z,0
2018-01-01T06:11:43.273Z,0
2018-01-01T06:12:23.875Z,0
2018-01-01T06:13:04.364Z,0
2018-01-01T06:13:44.948Z,0
2018-01-01T06:14:25.567Z,0
2018-01-01T06:15:06.046Z,0
2018-01-01T06:15:46.640Z,0
2018-01-01T06:16:27.213Z,0
2018-01-01T06:17:07.765Z,0
2018-01-01T06:17:48.270Z,0
2018-01-01T06:18:28.866Z,0
2018-01-01T06:19:09.376Z,0
2018-01-01T06:19:49.940Z,0
2018-01-01T06:20:30.453Z,0
2018-01-01T06:21:11.020Z,0
2018-01-01T06:21:51.625Z,0
2018-01-01T06:22:32.096Z,0
2018-01-01T06:23:12.749Z,0
2018-01-01T06:23:53.279Z,0
2018-01-01T06:24:33.775Z,0
2018-01-01T06:25:14.316Z,0
2018-01-01T06:25:54.883Z,0
2018-01-01T06:26:35.401Z,0
2018-01-01T06:27:16.375Z,0
2018-01-01T06:27:56.894Z,0
2018-01-01T06:28:37.508Z,0
2018-01-01T06:29:17.998Z,0
2018-01-01T06:29:58.597Z,0
2018-01-01T06:30:39.129Z,0
2018-01-01T06:31:19.672Z,0
2018-01-01T06:32:00.234Z,0
2018-01-01T06:32:40.833Z,0
2018-01-01T06:33:21.333Z,0
2018-01-01T06:34:01.877Z,0
2018-01-01T06:34:42.515Z,0
2018-01-01T06:35:23.011Z,0
2018-01-01T06:36:03.549Z,0
2018-01-01T06:36:44.071Z,0
2018-01-01T06:37:24.632Z,0
2018-01-01T06:38:05.116Z,0
2018-01-01T06:38:45.666Z,0
2018-01-01T06:39:26.267Z,0
2018-01-01T06:40:06.748Z,0
2018-01-01T06:40:47.339Z,0
2018-01-01T06:41:27.784Z,0
2018-01-01T06:42:08.490Z,0
2018-01-01T06:42:49.084Z,0
2018-01-01T06:43:29.578Z,0
2018-01-01T06:44:10.160Z,0
2018-01-01T06:44:50.721Z,0
2018-01-01T06:45:31.298Z,0
2018-01-01T06:46:11.760Z,0
2018-01-01T06:46:52.462Z,0
2018-01-01T06:47:32.964Z,0
2018-01-01T06:48:13.662Z,0
2018-01-01T06:48:54.103Z,0
2018-01-01T06:49:34.821Z,4
2018-01-01T06:50:15.353Z,4
2018-01-01T06:50:55.873Z,4
2018-01-01T06:51:36.414Z,0
2018-01-01T06:52:16.900Z,0
2018-01-01T06:52:57.455Z,4
2018-01-01T06:53:38.019Z,4
2018-01-01T06:54:18.660Z,4
2018-01-01T06:54:59.156Z,4
2018-01-01T06:55:39.839Z,4
2018-01-01T06:56:20.340Z,8
2018-01-01T06:57:00.955Z,4
2018-01-01T06:57:41.460Z,8
2018-01-01T06:58:22.277Z,4
2018-01-01T06:59:02.617Z,8
2018-01-01T06:59:43.183Z,8
2018-01-01T07:00:23.663Z,8
2018-01-01T07:01:04.159Z,4
2018-01-01T07:01:44.710Z,8
2018-01-01T07:02:25.206Z,8
2018-01-01T07:03:05.892Z,12
2018-01-01T07:03:46.435Z,16
2018-01-01T07:04:27.031Z,16
2018-01-01T07:05:07.478Z,20
2018-01-01T07:05:47.989Z,20
2018-01-01T07:06:28.552Z,24
2018-01-01T07:07:09.101Z,28
2018-01-01T07:07:49.693Z,32
2018-01-01T07:08:30.221Z,32
2018-01-01T07:09:10.808Z,36
2018-01-01T07:09:51.361Z,44
2018-01-01T07:10:31.918Z,44
2018-01-01T07:11:12.561Z,48
2018-01-01T07:11:53.085Z,52
2018-01-01T07:12:33.643Z,52
2018-01-01T07:13:14.185Z,60
2018-01-01T07:13:54.686Z,64
2018-01-01T07:14:35.274Z,68
2018-01-01T07:15:16.286Z,72
2018-01-01T07:15:56.339Z,80
2018-01-01T07:16:36.863Z,84
2018-01-01T07:17:17.423Z,88
2018-01-01T07:17:57.908Z,96
2018-01-01T07:18:38.474Z,100
2018-01-01T07:19:19.034Z,104
2018-01-01T07:19:59.620Z,108
2018-01-01T07:20:40.180Z,112
2018-01-01T07:21:20.676Z,120
2018-01-01T07:22:01.244Z,124
2018-01-01T07:22:41.825Z,132
2018-01-01T07:23:22.289Z,140
2018-01-01T07:24:02.872Z,144
2018-01-01T07:24:43.417Z,152
2018-01-01T07:25:23.936Z,156
2018-01-01T07:26:04.524Z,160
2018-01-01T07:26:45.072Z,172
2018-01-01T07:27:25.656Z,176
2018-01-01T07:28:06.190Z,184
2018-01-01T07:28:46.721Z,188
2018-01-01T07:29:27.311Z,196
2018-01-01T07:30:07.842Z,204
2018-01-01T07:30:48.441Z,208
2018-01-01T07:31:28.977Z,216
2018-01-01T07:32:09.581Z,224
2018-01-01T07:32:50.088Z,228
2018-01-01T07:33:30.670Z,236
2018-01-01T07:34:11.185Z,248
2018-01-01T07:34:51.905Z,256
2018-01-01T07:35:32.387Z,260
2018-01-01T07:36:12.971Z,272
2018-01-01T07:36:53.499Z,276
2018-01-01T07:37:34.093Z,284
2018-01-01T07:38:14.556Z,292
2018-01-01T07:38:55.177Z,304
2018-01-01T07:39:35.690Z,308
2018-01-01T07:40:16.247Z,316
2018-01-01T07:40:56.827Z,328
2018-01-01T07:41:37.410Z,336
2018-01-01T07:42:17.933Z,344
2018-01-01T07:42:58.506Z,352
2018-01-01T07:43:39.269Z,360
2018-01-01T07:44:19.914Z,368
2018-01-01T07:45:00.501Z,380
2018-01-01T07:45:41.040Z,388
2018-01-01T07:46:21.730Z,396
2018-01-01T07:47:02.301Z,404
2018-01-01T07:47:42.963Z,416
2018-01-01T07:48:23.428Z,424
2018-01-01T07:49:04.083Z,436
2018-01-01T07:49:44.640Z,448
2018-01-01T07:50:25.272Z,456
2018-01-01T07:51:05.814Z,468
2018-01-01T07:51:46.519Z,480
2018-01-01T07:52:27.055Z,488
2018-01-01T07:53:07.602Z,500
2018-01-01T07:53:48.128Z,512
2018-01-01T07:54:28.681Z,528
2018-01-01T07:55:09.316Z,540
2018-01-01T07:55:49.852Z,552
2018-01-01T07:56:30.437Z,564
2018-01-01T07:57:11.021Z,576
2018-01-01T07:57:51.508Z,592
2018-01-01T07:58:32.093Z,612
2018-01-01T07:59:12.625Z,628
2018-01-01T07:59:53.179Z,652
2018-01-01T08:00:33.729Z,660
2018-01-01T08:01:14.351Z,672
2018-01-01T08:01:54.893Z,688
2018-01-01T08:02:35.404Z,700
2018-01-01T08:03:16.092Z,712
2018-01-01T08:03:56.710Z,732
2018-01-01T08:04:37.252Z,748
2018-01-01T08:05:17.831Z,756
2018-01-01T08:05:58.362Z,752
2018-01-01T08:06:39.006Z,768
2018-01-01T08:07:19.678Z,768
2018-01-01T08:08:00.298Z,780
2018-01-01T08:08:40.873Z,772
2018-01-01T08:09:21.392Z,780
2018-01-01T08:10:02.077Z,788
2018-01-01T08:10:42.858Z,780
2018-01-01T08:11:23.363Z,780
2018-01-01T08:12:03.901Z,792
2018-01-01T08:12:44.494Z,800
2018-01-01T08:13:24.991Z,820
2018-01-01T08:14:05.611Z,840
2018-01-01T08:14:46.286Z,880
2018-01-01T08:15:26.850Z,924
2018-01-01T08:16:07.392Z,1052
2018-01-01T08:16:47.966Z,1108
2018-01-01T08:17:28.466Z,1060
2018-01-01T08:18:09.103Z,988
2018-01-01T08:18:49.948Z,956
2018-01-01T08:19:30.325Z,948
2018-01-01T08:20:10.930Z,932
2018-01-01T08:20:51.470Z,920
2018-01-01T08:21:32.168Z,924
2018-01-01T08:22:12.530Z,940
2018-01-01T08:22:53.000Z,984
2018-01-01T08:23:33.586Z,1044
2018-01-01T08:24:14.229Z,1080
2018-01-01T08:24:54.762Z,1040
2018-01-01T08:25:35.292Z,996
2018-01-01T08:26:15.841Z,984
2018-01-01T08:26:56.403Z,988
2018-01-01T08:27:36.887Z,996
2018-01-01T08:28:17.418Z,1000
2018-01-01T08:28:58.108Z,1004
2018-01-01T08:29:38.662Z,1012
2018-01-01T08:30:19.185Z,1036
2018-01-01T08:30:59.731Z,1096
2018-01-01T08:31:40.305Z,1080
2018-01-01T08:32:20.851Z,1084
2018-01-01T08:33:01.362Z,1060
2018-01-01T08:33:41.897Z,1056
2018-01-01T08:34:22.444Z,1064
2018-01-01T08:35:02.934Z,1068
2018-01-01T08:35:43.618Z,1068
2018-01-01T08:36:24.134Z,1072
2018-01-01T08:37:04.768Z,1076
2018-01-01T08:37:45.208Z,1080
2018-01-01T08:38:25.812Z,1088
2018-01-01T08:39:06.615Z,1096
2018-01-01T08:39:47.150Z,1100
2018-01-01T08:40:27.751Z,1112
2018-01-01T08:41:08.218Z,1136
2018-01-01T08:41:48.807Z,1192
2018-01-01T08:42:29.479Z,1300
2018-01-01T08:43:10.020Z,1492
2018-01-01T08:43:50.566Z,1888
2018-01-01T08:44:31.156Z,2080
2018-01-01T08:45:11.726Z,2060
2018-01-01T08:45:52.284Z,1752
2018-01-01T08:46:32.687Z,1468
2018-01-01T08:47:13.385Z,1248
2018-01-01T08:47:53.859Z,1136
2018-01-01T08:48:34.406Z,1096
2018-01-01T08:49:14.924Z,1080
2018-01-01T08:49:55.480Z,1076
2018-01-01T08:50:36.077Z,1084
2018-01-01T08:51:16.623Z,1076
2018-01-01T08:51:57.278Z,1060
2018-01-01T08:52:37.820Z,1068
2018-01-01T08:53:18.332Z,1088
2018-01-01T08:53:58.967Z,1164
2018-01-01T08:54:39.510Z,1220
2018-01-01T08:55:20.102Z,1240
2018-01-01T08:56:00.637Z,1212
2018-01-01T08:56:41.113Z,1184
2018-01-01T08:57:21.573Z,1184
2018-01-01T08:58:02.212Z,1192
2018-01-01T08:58:42.693Z,1268
2018-01-01T08:59:23.291Z,1324
2018-01-01T09:00:03.927Z,1372
2018-01-01T09:00:44.331Z,1416
2018-01-01T09:01:24.903Z,1412
2018-01-01T09:02:05.505Z,1292
2018-01-01T09:02:45.936Z,1208
2018-01-01T09:03:26.555Z,1176
2018-01-01T09:04:07.100Z,1164
2018-01-01T09:04:47.742Z,1180
2018-01-01T09:05:28.262Z,1176
2018-01-01T09:06:08.769Z,1176
2018-01-01T09:06:49.437Z,1168
2018-01-01T09:07:30.023Z,1164
2018-01-01T09:08:11.043Z,1168
2018-01-01T09:08:51.465Z,1176
2018-01-01T09:09:32.111Z,1240
2018-01-01T09:10:12.707Z,1256
2018-01-01T09:10:53.287Z,1300
2018-01-01T09:11:34.021Z,1316
2018-01-01T09:12:14.500Z,1408
2018-01-01T09:12:55.058Z,1556
2018-01-01T09:13:35.632Z,1680
2018-01-01T09:14:16.244Z,1768
2018-01-01T09:14:57.050Z,1772
2018-01-01T09:15:37.521Z,1824
2018-01-01T09:16:18.066Z,1836
2018-01-01T09:16:58.655Z,1824
2018-01-01T09:17:39.124Z,1876
2018-01-01T09:18:19.667Z,2056
2018-01-01T09:19:00.241Z,2132
2018-01-01T09:19:40.876Z,2092
2018-01-01T09:20:21.374Z,2004
2018-01-01T09:21:01.929Z,1936
2018-01-01T09:21:42.456Z,1924
2018-01-01T09:22:23.002Z,1888
2018-01-01T09:23:03.841Z,1816
2018-01-01T09:23:44.297Z,1772
2018-01-01T09:24:24.854Z,1664
2018-01-01T09:25:05.344Z,1608
2018-01-01T09:25:45.942Z,1612
2018-01-01T09:26:26.391Z,1656
2018-01-01T09:27:07.020Z,1704
2018-01-01T09:27:47.454Z,1736
2018-01-01T09:28:28.138Z,1732
2018-01-01T09:29:08.621Z,1752
2018-01-01T09:29:49.192Z,1824
2018-01-01T09:30:29.846Z,1816
2018-01-01T09:31:10.256Z,1804
2018-01-01T09:31:50.743Z,1828
2018-01-01T09:32:31.323Z,1844
2018-01-01T09:33:11.902Z,1884
2018-01-01T09:33:52.539Z,1920
2018-01-01T09:34:33.123Z,1968
2018-01-01T09:35:13.609Z,2012
2018-01-01T09:35:54.196Z,2036
2018-01-01T09:36:34.797Z,2136
2018-01-01T09:37:15.304Z,2140
2018-01-01T09:37:55.874Z,2080
2018-01-01T09:38:36.374Z,2004
2018-01-01T09:39:16.956Z,1940
2018-01-01T09:39:57.529Z,1940
2018-01-01T09:40:38.106Z,1888
2018-01-01T09:41:18.623Z,1896
2018-01-01T09:41:59.188Z,1888
2018-01-01T09:42:39.700Z,1916
2018-01-01T09:43:20.261Z,1880
2018-01-01T09:44:00.869Z,1856
2018-01-01T09:44:41.362Z,1840
2018-01-01T09:45:22.029Z,1892
2018-01-01T09:46:02.421Z,1760
2018-01-01T09:46:42.993Z,1656
2018-01-01T09:47:23.487Z,1644
2018-01-01T09:48:04.077Z,1640